sensor_id;sensor_type;location;lat;lon;timestamp;pressure;altitude;pressure_sealevel;temperature;humidity
56514;BME280;62152;52.078;8.414;2023-05-24T00:01:06;100834.69;;;20.22;47.97
56514;BME280;62152;52.078;8.414;2023-05-24T00:05:08;100832.72;;;20.23;47.88
56514;BME280;62152;52.078;8.414;2023-05-24T00:09:10;100818.94;;;20.23;48.22
56514;BME280;62152;52.078;8.414;2023-05-24T00:13:11;100830.75;;;20.23;48.43
56514;BME280;62152;52.078;8.414;2023-05-24T00:17:12;100825.63;;;20.22;47.99
56514;BME280;62152;52.078;8.414;2023-05-24T00:21:13;100811.06;;;20.21;48.37
56514;BME280;62152;52.078;8.414;2023-05-24T00:25:16;100815.78;;;20.21;48.33
56514;BME280;62152;52.078;8.414;2023-05-24T00:29:17;100805.91;;;20.20;48.20
56514;BME280;62152;52.078;8.414;2023-05-24T00:33:17;100811.44;;;20.20;47.78
56514;BME280;62152;52.078;8.414;2023-05-24T00:37:19;100799.25;;;20.21;48.54
56514;BME280;62152;52.078;8.414;2023-05-24T00:41:21;100805.91;;;20.20;47.84
56514;BME280;62152;52.078;8.414;2023-05-24T00:45:22;100808.66;;;20.20;47.96
56514;BME280;62152;52.078;8.414;2023-05-24T00:49:23;100801.56;;;20.19;47.87
56514;BME280;62152;52.078;8.414;2023-05-24T00:53:24;100811.78;;;20.18;48.37
56514;BME280;62152;52.078;8.414;2023-05-24T00:57:27;100807.09;;;20.19;47.76
56514;BME280;62152;52.078;8.414;2023-05-24T01:01:28;100796.06;;;20.19;48.04
56514;BME280;62152;52.078;8.414;2023-05-24T01:05:28;100782.63;;;20.17;48.51
56514;BME280;62152;52.078;8.414;2023-05-24T01:09:37;100772.44;;;20.18;48.11
56514;BME280;62152;52.078;8.414;2023-05-24T01:13:45;100768.06;;;20.17;48.20
56514;BME280;62152;52.078;8.414;2023-05-24T01:18:01;100770.81;;;20.17;47.80
56514;BME280;62152;52.078;8.414;2023-05-24T01:22:17;100768.06;;;20.17;47.81
56514;BME280;62152;52.078;8.414;2023-05-24T01:26:37;100766.50;;;20.16;47.82
56514;BME280;62152;52.078;8.414;2023-05-24T01:30:43;100773.59;;;20.17;48.36
56514;BME280;62152;52.078;8.414;2023-05-24T01:34:44;100770.03;;;20.16;48.36
56514;BME280;62152;52.078;8.414;2023-05-24T01:38:45;100765.69;;;20.15;47.72
56514;BME280;62152;52.078;8.414;2023-05-24T01:42:58;100767.66;;;20.15;48.09
56514;BME280;62152;52.078;8.414;2023-05-24T01:47:12;100768.81;;;20.14;47.97
56514;BME280;62152;52.078;8.414;2023-05-24T01:51:22;100761.34;;;20.14;48.03
56514;BME280;62152;52.078;8.414;2023-05-24T01:55:26;100759.75;;;20.13;48.22
56514;BME280;62152;52.078;8.414;2023-05-24T01:59:31;100760.56;;;20.14;47.86
56514;BME280;62152;52.078;8.414;2023-05-24T02:03:35;100757.38;;;20.12;47.87
56514;BME280;62152;52.078;8.414;2023-05-24T02:07:36;100758.97;;;20.13;48.10
56514;BME280;62152;52.078;8.414;2023-05-24T02:11:37;100757.81;;;20.14;48.35
56514;BME280;62152;52.078;8.414;2023-05-24T02:15:37;100754.63;;;20.12;47.79
56514;BME280;62152;52.078;8.414;2023-05-24T02:19:39;100762.88;;;20.12;47.80
56514;BME280;62152;52.078;8.414;2023-05-24T02:23:40;100765.66;;;20.12;48.13
56514;BME280;62152;52.078;8.414;2023-05-24T02:27:41;100768.41;;;20.12;48.00
56514;BME280;62152;52.078;8.414;2023-05-24T02:31:42;100764.06;;;20.11;48.42
56514;BME280;62152;52.078;8.414;2023-05-24T02:35:44;100757.72;;;20.10;48.04
56514;BME280;62152;52.078;8.414;2023-05-24T02:39:45;100759.69;;;20.10;47.97
56514;BME280;62152;52.078;8.414;2023-05-24T02:43:46;100753.38;;;20.09;48.01
56514;BME280;62152;52.078;8.414;2023-05-24T02:47:47;100756.94;;;20.10;48.26
56514;BME280;62152;52.078;8.414;2023-05-24T02:51:50;100758.91;;;20.09;47.63
56514;BME280;62152;52.078;8.414;2023-05-24T02:55:50;100762.00;;;20.08;47.47
56514;BME280;62152;52.078;8.414;2023-05-24T02:59:52;100747.09;;;20.09;47.59
56514;BME280;62152;52.078;8.414;2023-05-24T03:03:52;100749.03;;;20.08;47.68
56514;BME280;62152;52.078;8.414;2023-05-24T03:07:55;100759.25;;;20.08;48.37
56514;BME280;62152;52.078;8.414;2023-05-24T03:11:56;100755.72;;;20.07;47.67
56514;BME280;62152;52.078;8.414;2023-05-24T03:15:57;100765.56;;;20.08;48.00
56514;BME280;62152;52.078;8.414;2023-05-24T03:19:58;100761.22;;;20.07;47.98
56514;BME280;62152;52.078;8.414;2023-05-24T03:24:00;100764.78;;;20.08;47.95
56514;BME280;62152;52.078;8.414;2023-05-24T03:28:01;100765.19;;;20.10;47.76
56514;BME280;62152;52.078;8.414;2023-05-24T03:32:03;100760.06;;;20.08;47.56
56514;BME280;62152;52.078;8.414;2023-05-24T03:36:04;100760.44;;;20.07;47.91
56514;BME280;62152;52.078;8.414;2023-05-24T03:40:07;100768.69;;;20.07;48.21
56514;BME280;62152;52.078;8.414;2023-05-24T03:44:25;100771.44;;;20.07;48.35
56514;BME280;62152;52.078;8.414;2023-05-24T03:48:26;100768.69;;;20.07;48.17
56514;BME280;62152;52.078;8.414;2023-05-24T03:52:27;100774.63;;;20.09;48.05
56514;BME280;62152;52.078;8.414;2023-05-24T03:56:29;100773.03;;;20.08;47.61
56514;BME280;62152;52.078;8.414;2023-05-24T04:00:30;100768.69;;;20.07;47.72
56514;BME280;62152;52.078;8.414;2023-05-24T04:04:31;100778.53;;;19.65;45.81
56514;BME280;62152;52.078;8.414;2023-05-24T04:08:31;100769.00;;;19.44;46.21
56514;BME280;62152;52.078;8.414;2023-05-24T04:12:34;100770.63;;;19.64;46.15
56514;BME280;62152;52.078;8.414;2023-05-24T04:16:34;100761.78;;;19.74;46.61
56514;BME280;62152;52.078;8.414;2023-05-24T04:20:38;100754.81;;;19.80;46.86
56514;BME280;62152;52.078;8.414;2023-05-24T04:24:39;100756.84;;;19.83;46.82
56514;BME280;62152;52.078;8.414;2023-05-24T04:28:42;100771.84;;;19.86;46.73
56514;BME280;62152;52.078;8.414;2023-05-24T04:32:43;100769.88;;;19.86;46.57
56514;BME280;62152;52.078;8.414;2023-05-24T04:36:47;100762.84;;;19.89;46.71
56514;BME280;62152;52.078;8.414;2023-05-24T04:40:48;100763.63;;;19.89;46.60
56514;BME280;62152;52.078;8.414;2023-05-24T04:44:50;100763.28;;;19.91;46.30
56514;BME280;62152;52.078;8.414;2023-05-24T04:48:51;100755.81;;;19.91;46.78
56514;BME280;62152;52.078;8.414;2023-05-24T04:52:51;100754.28;;;19.94;47.11
56514;BME280;62152;52.078;8.414;2023-05-24T04:56:52;100758.63;;;19.95;47.21
56514;BME280;62152;52.078;8.414;2023-05-24T05:00:55;100761.38;;;19.95;46.95
56514;BME280;62152;52.078;8.414;2023-05-24T05:04:55;100770.44;;;19.95;46.64
56514;BME280;62152;52.078;8.414;2023-05-24T05:08:56;100770.09;;;19.97;46.93
56514;BME280;62152;52.078;8.414;2023-05-24T05:12:57;100766.53;;;19.97;46.76
56514;BME280;62152;52.078;8.414;2023-05-24T05:16:59;100761.00;;;19.97;46.96
56514;BME280;62152;52.078;8.414;2023-05-24T05:21:00;100772.47;;;19.99;46.61
56514;BME280;62152;52.078;8.414;2023-05-24T05:25:01;100770.53;;;19.99;46.93
56514;BME280;62152;52.078;8.414;2023-05-24T05:29:01;100777.63;;;20.00;46.72
56514;BME280;62152;52.078;8.414;2023-05-24T05:33:04;100783.13;;;20.00;46.91
56514;BME280;62152;52.078;8.414;2023-05-24T05:45:07;100781.16;;;20.01;47.10
56514;BME280;62152;52.078;8.414;2023-05-24T05:49:09;100785.50;;;20.02;47.36
56514;BME280;62152;52.078;8.414;2023-05-24T05:53:10;100800.84;;;20.03;46.92
56514;BME280;62152;52.078;8.414;2023-05-24T05:57:11;100793.41;;;20.03;47.07
56514;BME280;62152;52.078;8.414;2023-05-24T06:01:12;100801.66;;;20.03;47.26
56514;BME280;62152;52.078;8.414;2023-05-24T06:05:14;100802.09;;;20.05;47.48
56514;BME280;62152;52.078;8.414;2023-05-24T06:09:15;100791.09;;;20.05;46.81
56514;BME280;62152;52.078;8.414;2023-05-24T06:13:16;100803.28;;;20.04;47.05
56514;BME280;62152;52.078;8.414;2023-05-24T06:17:16;100806.03;;;20.04;47.37
56514;BME280;62152;52.078;8.414;2023-05-24T06:21:19;100797.75;;;20.04;47.20
56514;BME280;62152;52.078;8.414;2023-05-24T06:25:20;100802.09;;;20.05;47.40
56514;BME280;62152;52.078;8.414;2023-05-24T06:29:21;100814.34;;;20.08;47.11
56514;BME280;62152;52.078;8.414;2023-05-24T06:33:22;100796.22;;;20.07;47.01
56514;BME280;62152;52.078;8.414;2023-05-24T06:37:24;100794.28;;;20.07;47.42
56514;BME280;62152;52.078;8.414;2023-05-24T06:41:24;100806.88;;;20.08;46.94
56514;BME280;62152;52.078;8.414;2023-05-24T06:45:25;100808.47;;;20.09;46.88
56514;BME280;62152;52.078;8.414;2023-05-24T06:49:26;100814.75;;;20.10;47.11
56514;BME280;62152;52.078;8.414;2023-05-24T06:53:29;100815.22;;;20.12;47.36
56514;BME280;62152;52.078;8.414;2023-05-24T06:57:29;100822.69;;;20.11;47.51
56514;BME280;62152;52.078;8.414;2023-05-24T07:01:30;100825.84;;;20.13;47.29
56514;BME280;62152;52.078;8.414;2023-05-24T07:05:31;100824.69;;;20.14;47.33
56514;BME280;62152;52.078;8.414;2023-05-24T07:09:33;100826.28;;;20.15;47.17
56514;BME280;62152;52.078;8.414;2023-05-24T07:13:34;100825.84;;;20.13;47.29
56514;BME280;62152;52.078;8.414;2023-05-24T07:17:35;100826.66;;;20.14;47.67
56514;BME280;62152;52.078;8.414;2023-05-24T07:21:36;100831.41;;;20.17;46.95
56514;BME280;62152;52.078;8.414;2023-05-24T07:25:38;100836.94;;;20.17;47.09
56514;BME280;62152;52.078;8.414;2023-05-24T07:29:39;100840.13;;;20.19;47.70
56514;BME280;62152;52.078;8.414;2023-05-24T07:33:40;100836.22;;;20.20;47.64
56514;BME280;62152;52.078;8.414;2023-05-24T07:37:40;100834.63;;;20.19;47.01
56514;BME280;62152;52.078;8.414;2023-05-24T07:41:43;100828.31;;;20.18;47.04
56514;BME280;62152;52.078;8.414;2023-05-24T07:45:44;100826.38;;;20.19;47.26
56514;BME280;62152;52.078;8.414;2023-05-24T07:49:45;100813.38;;;20.19;47.09
56514;BME280;62152;52.078;8.414;2023-05-24T07:53:46;100836.22;;;20.20;46.96
56514;BME280;62152;52.078;8.414;2023-05-24T07:57:48;100833.88;;;20.22;47.62
56514;BME280;62152;52.078;8.414;2023-05-24T08:01:49;100818.94;;;20.23;47.44
56514;BME280;62152;52.078;8.414;2023-05-24T08:05:50;100820.53;;;20.24;47.28
56514;BME280;62152;52.078;8.414;2023-05-24T08:09:51;100831.22;;;20.26;47.14
56514;BME280;62152;52.078;8.414;2023-05-24T08:13:53;100838.69;;;20.25;47.35
56514;BME280;62152;52.078;8.414;2023-05-24T08:17:53;100842.56;;;20.24;47.46
56514;BME280;62152;52.078;8.414;2023-05-24T08:21:54;100829.97;;;20.23;47.06
56514;BME280;62152;52.078;8.414;2023-05-24T08:25:55;100843.72;;;20.23;47.70
56514;BME280;62152;52.078;8.414;2023-05-24T08:29:58;100841.78;;;20.23;47.72
56514;BME280;62152;52.078;8.414;2023-05-24T08:33:58;100841.78;;;20.23;46.93
56514;BME280;62152;52.078;8.414;2023-05-24T08:38:00;100846.50;;;20.23;47.72
56514;BME280;62152;52.078;8.414;2023-05-24T08:42:01;100844.91;;;20.22;47.57
56514;BME280;62152;52.078;8.414;2023-05-24T08:46:04;100846.50;;;20.23;47.46
56514;BME280;62152;52.078;8.414;2023-05-24T08:50:07;100839.81;;;20.24;47.73
56514;BME280;62152;52.078;8.414;2023-05-24T08:54:09;100840.28;;;20.26;47.34
56514;BME280;62152;52.078;8.414;2023-05-24T08:58:10;100844.19;;;20.25;47.27
56514;BME280;62152;52.078;8.414;2023-05-24T09:02:14;100850.50;;;20.26;47.66
56514;BME280;62152;52.078;8.414;2023-05-24T09:06:17;100844.97;;;20.26;47.27
56514;BME280;62152;52.078;8.414;2023-05-24T09:10:19;100848.53;;;20.26;47.07
56514;BME280;62152;52.078;8.414;2023-05-24T09:14:22;100858.38;;;20.27;47.61
56514;BME280;62152;52.078;8.414;2023-05-24T09:18:24;100852.09;;;20.27;47.17
56514;BME280;62152;52.078;8.414;2023-05-24T09:22:27;100859.53;;;20.26;47.57
56514;BME280;62152;52.078;8.414;2023-05-24T09:26:28;100866.22;;;20.25;47.62
56514;BME280;62152;52.078;8.414;2023-05-24T09:30:29;100863.47;;;20.25;47.21
56514;BME280;62152;52.078;8.414;2023-05-24T09:34:38;100871.72;;;20.25;47.43
56514;BME280;62152;52.078;8.414;2023-05-24T09:38:40;100870.13;;;20.24;47.36
56514;BME280;62152;52.078;8.414;2023-05-24T09:42:41;100864.59;;;20.24;47.70
56514;BME280;62152;52.078;8.414;2023-05-24T09:46:42;100871.72;;;20.25;47.12
56514;BME280;62152;52.078;8.414;2023-05-24T09:50:57;100867.03;;;20.26;47.48
56514;BME280;62152;52.078;8.414;2023-05-24T09:54:59;100862.31;;;20.26;47.70
56514;BME280;62152;52.078;8.414;2023-05-24T09:59:05;100871.72;;;20.25;47.88
56514;BME280;62152;52.078;8.414;2023-05-24T10:03:08;100870.94;;;20.25;47.26
56514;BME280;62152;52.078;8.414;2023-05-24T10:07:11;100867.34;;;20.24;47.66
56514;BME280;62152;52.078;8.414;2023-05-24T10:11:12;100865.78;;;20.23;47.28
56514;BME280;62152;52.078;8.414;2023-05-24T10:15:13;100868.19;;;20.25;47.22
56514;BME280;62152;52.078;8.414;2023-05-24T10:19:15;100870.13;;;20.24;47.64
56514;BME280;62152;52.078;8.414;2023-05-24T10:23:19;100867.72;;;20.22;47.40
56514;BME280;62152;52.078;8.414;2023-05-24T10:27:26;100869.31;;;20.23;47.83
56514;BME280;62152;52.078;8.414;2023-05-24T10:31:33;100865.78;;;20.23;47.95
56514;BME280;62152;52.078;8.414;2023-05-24T10:35:39;100885.06;;;20.23;47.77
56514;BME280;62152;52.078;8.414;2023-05-24T10:39:42;100885.06;;;20.23;47.53
56514;BME280;62152;52.078;8.414;2023-05-24T10:43:45;100877.94;;;20.22;47.55
56514;BME280;62152;52.078;8.414;2023-05-24T10:47:46;100878.75;;;20.22;48.03
56514;BME280;62152;52.078;8.414;2023-05-24T10:51:47;100879.53;;;20.23;47.95
56514;BME280;62152;52.078;8.414;2023-05-24T10:55:56;100878.75;;;20.22;47.45
56514;BME280;62152;52.078;8.414;2023-05-24T11:00:25;100872.06;;;20.23;47.37
56514;BME280;62152;52.078;8.414;2023-05-24T11:04:30;100875.63;;;20.24;47.54
56514;BME280;62152;52.078;8.414;2023-05-24T11:08:35;100876.44;;;20.25;47.88
56514;BME280;62152;52.078;8.414;2023-05-24T11:12:42;100879.63;;;20.27;47.62
56514;BME280;62152;52.078;8.414;2023-05-24T11:16:44;100873.75;;;20.28;47.35
56514;BME280;62152;52.078;8.414;2023-05-24T11:20:47;100861.56;;;20.29;47.38
56514;BME280;62152;52.078;8.414;2023-05-24T11:24:48;100868.75;;;20.34;47.54
56514;BME280;62152;52.078;8.414;2023-05-24T11:28:50;100862.06;;;20.35;47.44
56514;BME280;62152;52.078;8.414;2023-05-24T11:32:51;100866.78;;;20.34;47.57
56514;BME280;62152;52.078;8.414;2023-05-24T11:36:52;100870.31;;;20.35;47.11
56514;BME280;62152;52.078;8.414;2023-05-24T11:40:53;100864.44;;;20.36;47.67
56514;BME280;62152;52.078;8.414;2023-05-24T11:44:59;100858.56;;;20.38;47.85
56514;BME280;62152;52.078;8.414;2023-05-24T11:49:00;100860.19;;;20.39;47.25
56514;BME280;62152;52.078;8.414;2023-05-24T11:53:01;100862.84;;;20.35;47.37
56514;BME280;62152;52.078;8.414;2023-05-24T11:57:04;100861.63;;;20.33;47.43
56514;BME280;62152;52.078;8.414;2023-05-24T12:01:24;100861.63;;;20.33;47.18
56514;BME280;62152;52.078;8.414;2023-05-24T12:05:25;100865.19;;;20.33;47.95
56514;BME280;62152;52.078;8.414;2023-05-24T12:09:27;100861.28;;;20.34;47.74
56514;BME280;62152;52.078;8.414;2023-05-24T12:13:29;100864.03;;;20.34;47.94
56514;BME280;62152;52.078;8.414;2023-05-24T12:17:32;100864.41;;;20.33;47.82
56514;BME280;62152;52.078;8.414;2023-05-24T12:21:33;100864.75;;;20.31;47.98
56514;BME280;62152;52.078;8.414;2023-05-24T12:25:36;100859.22;;;20.31;47.45
56514;BME280;62152;52.078;8.414;2023-05-24T12:29:39;100864.75;;;20.31;47.47
56514;BME280;62152;52.078;8.414;2023-05-24T12:33:42;100870.25;;;20.31;47.84
56514;BME280;62152;52.078;8.414;2023-05-24T12:37:43;100870.63;;;20.30;47.83
56514;BME280;62152;52.078;8.414;2023-05-24T12:41:48;100872.56;;;20.29;47.94
56514;BME280;62152;52.078;8.414;2023-05-24T12:45:50;100872.56;;;20.29;47.79
56514;BME280;62152;52.078;8.414;2023-05-24T12:49:52;100870.69;;;20.33;47.74
56514;BME280;62152;52.078;8.414;2023-05-24T12:53:53;100876.63;;;20.35;47.81
56514;BME280;62152;52.078;8.414;2023-05-24T12:57:55;100875.84;;;20.35;47.34
56514;BME280;62152;52.078;8.414;2023-05-24T13:01:56;100869.03;;;20.29;47.83
56514;BME280;62152;52.078;8.414;2023-05-24T13:05:58;100872.16;;;20.27;47.80
56514;BME280;62152;52.078;8.414;2023-05-24T13:09:59;100867.81;;;20.26;47.56
56514;BME280;62152;52.078;8.414;2023-05-24T13:14:01;100871.72;;;20.25;47.42
56514;BME280;62152;52.078;8.414;2023-05-24T13:18:02;100868.19;;;20.25;47.61
56514;BME280;62152;52.078;8.414;2023-05-24T13:22:05;100878.03;;;20.26;47.32
56514;BME280;62152;52.078;8.414;2023-05-24T13:26:06;100876.06;;;20.26;47.85
56514;BME280;62152;52.078;8.414;2023-05-24T13:30:07;100872.53;;;20.26;47.59
56514;BME280;62152;52.078;8.414;2023-05-24T13:34:09;100868.59;;;20.27;47.38
56514;BME280;62152;52.078;8.414;2023-05-24T13:38:11;100869.03;;;20.29;47.47
56514;BME280;62152;52.078;8.414;2023-05-24T13:42:12;100868.66;;;20.30;47.37
56514;BME280;62152;52.078;8.414;2023-05-24T13:46:13;100865.09;;;20.30;47.41
56514;BME280;62152;52.078;8.414;2023-05-24T13:50:14;100867.88;;;20.30;47.94
56514;BME280;62152;52.078;8.414;2023-05-24T13:54:16;100867.88;;;20.30;47.83
56514;BME280;62152;52.078;8.414;2023-05-24T13:58:17;100871.00;;;20.28;48.15
56514;BME280;62152;52.078;8.414;2023-05-24T14:02:18;100866.28;;;20.29;48.10
56514;BME280;62152;52.078;8.414;2023-05-24T14:06:19;100862.31;;;20.26;47.35
56514;BME280;62152;52.078;8.414;2023-05-24T14:10:21;100869.41;;;20.27;47.61
56514;BME280;62152;52.078;8.414;2023-05-24T14:14:22;100865.06;;;20.26;48.14
56514;BME280;62152;52.078;8.414;2023-05-24T14:18:23;100867.81;;;20.26;48.11
56514;BME280;62152;52.078;8.414;2023-05-24T14:22:24;100866.22;;;20.25;48.08
56514;BME280;62152;52.078;8.414;2023-05-24T14:26:26;100868.97;;;20.25;48.09
56514;BME280;62152;52.078;8.414;2023-05-24T14:30:27;100869.31;;;20.23;47.51
56514;BME280;62152;52.078;8.414;2023-05-24T14:34:31;100873.69;;;20.25;47.96
56514;BME280;62152;52.078;8.414;2023-05-24T14:38:32;100874.50;;;20.25;47.68
56514;BME280;62152;52.078;8.414;2023-05-24T14:42:34;100870.13;;;20.24;47.74
56514;BME280;62152;52.078;8.414;2023-05-24T14:46:35;100868.53;;;20.23;47.88
56514;BME280;62152;52.078;8.414;2023-05-24T14:50:35;100872.06;;;20.23;48.22
56514;BME280;62152;52.078;8.414;2023-05-24T14:54:36;100880.00;;;20.25;48.07
56514;BME280;62152;52.078;8.414;2023-05-24T14:58:39;100878.38;;;20.24;48.00
56514;BME280;62152;52.078;8.414;2023-05-24T15:02:40;100877.25;;;20.25;47.75
56514;BME280;62152;52.078;8.414;2023-05-24T15:06:41;100880.84;;;20.29;48.12
56514;BME280;62152;52.078;8.414;2023-05-24T15:10:42;100882.09;;;20.32;47.79
56514;BME280;62152;52.078;8.414;2023-05-24T15:14:44;100877.78;;;20.34;47.90
56514;BME280;62152;52.078;8.414;2023-05-24T15:18:45;100876.63;;;20.35;47.93
56514;BME280;62152;52.078;8.414;2023-05-24T15:22:46;100885.28;;;20.34;48.28
56514;BME280;62152;52.078;8.414;2023-05-24T15:26:47;100886.44;;;20.33;48.57
56514;BME280;62152;52.078;8.414;2023-05-24T15:30:49;100886.78;;;20.31;48.36
56514;BME280;62152;52.078;8.414;2023-05-24T15:34:50;100877.38;;;20.32;48.23
56514;BME280;62152;52.078;8.414;2023-05-24T15:38:50;100889.19;;;20.33;48.29
56514;BME280;62152;52.078;8.414;2023-05-24T15:42:51;100886.44;;;20.33;48.38
56514;BME280;62152;52.078;8.414;2023-05-24T15:46:53;100884.47;;;20.33;48.25
56514;BME280;62152;52.078;8.414;2023-05-24T15:50:54;100885.28;;;20.34;48.30
56514;BME280;62152;52.078;8.414;2023-05-24T15:54:55;100884.47;;;20.33;47.81
56514;BME280;62152;52.078;8.414;2023-05-24T15:58:56;100880.94;;;20.33;47.59
56514;BME280;62152;52.078;8.414;2023-05-24T16:02:58;100876.22;;;20.33;47.90
56514;BME280;62152;52.078;8.414;2023-05-24T16:06:58;100875.84;;;20.35;47.59
56514;BME280;62152;52.078;8.414;2023-05-24T16:10:59;100876.25;;;20.37;47.45
56514;BME280;62152;52.078;8.414;2023-05-24T16:15:00;100874.31;;;20.37;47.67
56514;BME280;62152;52.078;8.414;2023-05-24T16:19:02;100872.00;;;20.39;48.02
56514;BME280;62152;52.078;8.414;2023-05-24T16:23:03;100867.28;;;20.40;47.85
56514;BME280;62152;52.078;8.414;2023-05-24T16:27:04;100871.25;;;20.42;47.71
56514;BME280;62152;52.078;8.414;2023-05-24T16:31:05;100864.56;;;20.43;47.91
56514;BME280;62152;52.078;8.414;2023-05-24T16:35:08;100857.22;;;20.47;48.07
56514;BME280;62152;52.078;8.414;2023-05-24T16:39:08;100859.19;;;20.47;47.66
56514;BME280;62152;52.078;8.414;2023-05-24T16:43:09;100860.38;;;20.49;47.41
56514;BME280;62152;52.078;8.414;2023-05-24T16:47:10;100857.72;;;20.53;48.11
56514;BME280;62152;52.078;8.414;2023-05-24T16:51:13;100851.03;;;20.54;48.25
56514;BME280;62152;52.078;8.414;2023-05-24T16:55:14;100858.94;;;20.56;48.01
56514;BME280;62152;52.078;8.414;2023-05-24T16:59:14;100855.88;;;20.61;48.28
56514;BME280;62152;52.078;8.414;2023-05-24T17:03:15;100858.63;;;20.61;48.67
56514;BME280;62152;52.078;8.414;2023-05-24T17:07:17;100851.94;;;20.62;48.66
56514;BME280;62152;52.078;8.414;2023-05-24T17:11:18;100847.66;;;20.64;48.36
56514;BME280;62152;52.078;8.414;2023-05-24T17:15:19;100855.59;;;20.66;49.06
56514;BME280;62152;52.078;8.414;2023-05-24T17:19:20;100855.59;;;20.66;48.74
56514;BME280;62152;52.078;8.414;2023-05-24T17:23:23;100852.00;;;20.65;48.64
56514;BME280;62152;52.078;8.414;2023-05-24T17:27:24;100852.50;;;20.71;48.76
56514;BME280;62152;52.078;8.414;2023-05-24T17:31:25;100854.94;;;20.76;48.97
56514;BME280;62152;52.078;8.414;2023-05-24T17:35:26;100851.81;;;20.77;48.84
56514;BME280;62152;52.078;8.414;2023-05-24T17:39:28;100857.94;;;20.90;48.71
56514;BME280;62152;52.078;8.414;2023-05-24T17:43:29;100862.06;;;20.77;48.51
56514;BME280;62152;52.078;8.414;2023-05-24T17:47:30;100854.47;;;20.70;48.68
56514;BME280;62152;52.078;8.414;2023-05-24T17:51:30;100863.09;;;20.69;48.57
56514;BME280;62152;52.078;8.414;2023-05-24T17:55:32;100855.22;;;20.67;48.58
56514;BME280;62152;52.078;8.414;2023-05-24T17:59:33;100856.38;;;20.66;49.21
56514;BME280;62152;52.078;8.414;2023-05-24T18:03:35;100868.91;;;20.64;48.75
56514;BME280;62152;52.078;8.414;2023-05-24T18:07:36;100859.06;;;20.63;49.37
56514;BME280;62152;52.078;8.414;2023-05-24T18:11:39;100872.84;;;20.63;48.67
56514;BME280;62152;52.078;8.414;2023-05-24T18:15:40;100870.44;;;20.61;49.22
56514;BME280;62152;52.078;8.414;2023-05-24T18:19:41;100866.09;;;20.60;49.10
56514;BME280;62152;52.078;8.414;2023-05-24T18:23:42;100868.88;;;20.60;49.04
56514;BME280;62152;52.078;8.414;2023-05-24T18:27:44;100870.03;;;20.59;48.67
56514;BME280;62152;52.078;8.414;2023-05-24T18:31:45;100870.38;;;20.58;49.36
56514;BME280;62152;52.078;8.414;2023-05-24T18:35:46;100876.25;;;20.56;49.14
56514;BME280;62152;52.078;8.414;2023-05-24T18:39:47;100878.97;;;20.53;48.61
56514;BME280;62152;52.078;8.414;2023-05-24T18:43:49;100879.97;;;20.44;48.74
56514;BME280;62152;52.078;8.414;2023-05-24T18:47:49;100887.53;;;20.47;48.70
56514;BME280;62152;52.078;8.414;2023-05-24T18:51:50;100887.09;;;20.45;48.67
56514;BME280;62152;52.078;8.414;2023-05-24T18:55:51;100888.25;;;20.44;49.21
56514;BME280;62152;52.078;8.414;2023-05-24T18:59:53;100890.53;;;20.42;48.71
56514;BME280;62152;52.078;8.414;2023-05-24T19:03:54;100890.91;;;20.41;48.98
56514;BME280;62152;52.078;8.414;2023-05-24T19:07:54;100898.75;;;20.39;48.73
56514;BME280;62152;52.078;8.414;2023-05-24T19:11:55;100905.78;;;20.36;48.86
56514;BME280;62152;52.078;8.414;2023-05-24T19:15:57;100911.66;;;20.35;48.75
56514;BME280;62152;52.078;8.414;2023-05-24T19:19:59;100912.81;;;20.34;48.57
56514;BME280;62152;52.078;8.414;2023-05-24T19:24:00;100901.38;;;20.32;49.27
56514;BME280;62152;52.078;8.414;2023-05-24T19:28:01;100904.47;;;20.30;48.66
56514;BME280;62152;52.078;8.414;2023-05-24T19:32:03;100917.81;;;20.28;48.67
56514;BME280;62152;52.078;8.414;2023-05-24T19:36:05;100923.34;;;20.28;48.51
56514;BME280;62152;52.078;8.414;2023-05-24T19:40:07;100924.50;;;20.27;49.39
56514;BME280;62152;52.078;8.414;2023-05-24T19:44:08;100921.75;;;20.27;49.04
56514;BME280;62152;52.078;8.414;2023-05-24T19:48:11;100933.91;;;20.26;49.10
56514;BME280;62152;52.078;8.414;2023-05-24T19:52:11;100930.44;;;20.29;48.69
56514;BME280;62152;52.078;8.414;2023-05-24T19:56:12;100937.53;;;20.30;49.16
56514;BME280;62152;52.078;8.414;2023-05-24T20:00:13;100940.28;;;20.30;48.91
56514;BME280;62152;52.078;8.414;2023-05-24T20:04:16;100938.69;;;20.29;48.67
56514;BME280;62152;52.078;8.414;2023-05-24T20:08:16;100948.13;;;20.28;49.22
56514;BME280;62152;52.078;8.414;2023-05-24T20:12:17;100949.28;;;20.27;49.07
56514;BME280;62152;52.078;8.414;2023-05-24T20:16:18;100950.44;;;20.26;48.59
56514;BME280;62152;52.078;8.414;2023-05-24T20:20:21;100955.16;;;20.26;48.98
56514;BME280;62152;52.078;8.414;2023-05-24T20:24:21;100957.91;;;20.26;49.10
56514;BME280;62152;52.078;8.414;2023-05-24T20:28:23;100968.16;;;20.25;49.20
56514;BME280;62152;52.078;8.414;2023-05-24T20:32:23;100966.53;;;20.24;48.84
56514;BME280;62152;52.078;8.414;2023-05-24T20:36:26;100964.59;;;20.25;48.78
56514;BME280;62152;52.078;8.414;2023-05-24T20:40:26;100966.53;;;20.24;48.65
56514;BME280;62152;52.078;8.414;2023-05-24T20:44:27;100970.91;;;20.25;48.79
56514;BME280;62152;52.078;8.414;2023-05-24T20:48:28;100969.28;;;20.24;48.64
56514;BME280;62152;52.078;8.414;2023-05-24T20:52:30;100975.94;;;20.23;48.75
56514;BME280;62152;52.078;8.414;2023-05-24T20:56:31;100981.47;;;20.23;48.54
56514;BME280;62152;52.078;8.414;2023-05-24T21:00:32;100977.13;;;20.22;48.65
56514;BME280;62152;52.078;8.414;2023-05-24T21:04:33;100978.28;;;20.21;48.65
56514;BME280;62152;52.078;8.414;2023-05-24T21:08:35;100981.03;;;20.21;48.84
56514;BME280;62152;52.078;8.414;2023-05-24T21:12:35;100989.66;;;20.19;48.65